Time;durP1;ratioP1;P1;durP2;ratioP2;P2;SDS_P1;SDS_P2;PMS_P1;PMS_P2;Temp;Humidity;BMP_temperature;BMP_pressure;BME280_temperature;BME280_humidity;BME280_pressure;Samples;Min_cycle;Max_cycle;Signal;HPM_P1;HPM_P2
2023/12/17 00:00:48;;;;;;;18.75;8.40;;;;;;;8.21;100.00;102122.19;5023635;28;20061;-74
2023/12/17 00:03:14;;;;;;;12.98;7.55;;;;;;;8.24;100.00;102129.09;4993929;28;20475;-75
2023/12/17 00:05:40;;;;;;;12.05;7.05;;;;;;;8.25;100.00;102131.50;4995063;28;20136;-73
2023/12/17 00:08:08;;;;;;;17.33;7.13;;;;;;;8.27;100.00;102136.75;4994679;28;20041;-74
2023/12/17 00:10:33;;;;;;;14.40;6.80;;;;;;;8.28;100.00;102138.38;4994721;28;20037;-75
2023/12/17 00:13:00;;;;;;;14.43;6.85;;;;;;;8.28;100.00;102132.69;5026148;28;20384;-74
2023/12/17 00:15:25;;;;;;;16.00;7.55;;;;;;;8.30;100.00;102133.88;4996836;28;20038;-72
2023/12/17 00:17:52;;;;;;;12.43;7.32;;;;;;;8.29;100.00;102126.56;4994352;28;20530;-73
2023/12/17 00:20:18;;;;;;;9.90;5.93;;;;;;;8.24;100.00;102118.50;4994525;28;20097;-74
2023/12/17 00:22:45;;;;;;;13.32;7.00;;;;;;;8.29;100.00;102118.00;4994655;28;20037;-74
2023/12/17 00:25:13;;;;;;;16.00;7.03;;;;;;;8.29;100.00;102106.63;4994603;28;20482;-73
2023/12/17 00:27:41;;;;;;;11.48;5.78;;;;;;;8.27;100.00;102106.22;4994289;28;20105;-75
2023/12/17 00:30:08;;;;;;;12.38;6.30;;;;;;;8.31;100.00;102094.81;5009343;28;20022;-74
2023/12/17 00:32:35;;;;;;;12.95;7.00;;;;;;;8.35;100.00;102104.91;4994523;28;20022;-73
2023/12/17 00:35:07;;;;;;;12.40;6.22;;;;;;;8.42;100.00;102117.38;4993650;28;20026;-74
2023/12/17 00:37:35;;;;;;;10.40;6.38;;;;;;;8.39;100.00;102125.56;4992949;28;20081;-72
2023/12/17 00:40:05;;;;;;;17.58;7.70;;;;;;;8.41;100.00;102132.88;4992905;28;20073;-74
2023/12/17 00:42:30;;;;;;;15.07;7.30;;;;;;;8.43;100.00;102121.84;4993055;28;20022;-75
2023/12/17 00:45:04;;;;;;;14.43;7.57;;;;;;;8.48;100.00;102127.03;4992877;28;20460;-73
2023/12/17 00:47:29;;;;;;;13.68;6.57;;;;;;;8.47;100.00;102137.63;4993068;28;20430;-76
2023/12/17 00:49:57;;;;;;;17.42;7.15;;;;;;;8.46;100.00;102133.16;5027607;28;20310;-75
2023/12/17 00:52:23;;;;;;;12.60;7.28;;;;;;;8.47;100.00;102128.28;5012900;28;20049;-73
2023/12/17 00:54:49;;;;;;;14.43;7.70;;;;;;;8.49;100.00;102120.13;5028056;28;20478;-75
2023/12/17 00:57:15;;;;;;;13.48;7.20;;;;;;;8.50;100.00;102122.53;5011268;28;20029;-73
2023/12/17 00:59:41;;;;;;;13.43;7.05;;;;;;;8.49;100.00;102118.06;5011123;28;20109;-72
2023/12/17 01:02:07;;;;;;;12.88;7.22;;;;;;;8.55;100.00;102124.09;5012086;28;20033;-73
2023/12/17 01:04:34;;;;;;;14.10;7.28;;;;;;;8.56;100.00;102112.22;5013453;28;20030;-74
2023/12/17 01:07:00;;;;;;;11.75;6.68;;;;;;;8.55;100.00;102121.22;5012230;28;20104;-73
2023/12/17 01:09:47;;;;;;;10.88;6.20;;;;;;;8.54;100.00;102111.88;5012578;28;20065;-75
2023/12/17 01:12:13;;;;;;;11.27;6.40;;;;;;;8.53;100.00;102106.59;5012306;28;20133;-72
2023/12/17 01:14:47;;;;;;;11.77;6.97;;;;;;;8.54;100.00;102102.53;5012450;28;20341;-72
2023/12/17 01:17:13;;;;;;;15.45;8.45;;;;;;;8.55;100.00;102109.84;5012153;28;20021;-72
2023/12/17 01:19:39;;;;;;;15.13;7.43;;;;;;;8.55;100.00;102101.28;5011237;28;20145;-74
2023/12/17 01:22:05;;;;;;;18.25;5.30;;;;;;;8.53;100.00;102112.31;5012221;28;20074;-73
2023/12/17 01:24:52;;;;;;;13.07;5.30;;;;;;;8.52;100.00;102116.38;5011116;28;20061;-75
2023/12/17 01:27:18;;;;;;;11.07;4.57;;;;;;;8.52;100.00;102107.84;5011530;28;20033;-74
2023/12/17 01:29:43;;;;;;;9.35;6.03;;;;;;;8.53;100.00;102098.06;5012002;28;20037;-72
2023/12/17 01:32:14;;;;;;;11.70;5.65;;;;;;;8.57;100.00;102096.75;5011901;28;20566;-74
2023/12/17 01:34:45;;;;;;;13.52;7.35;;;;;;;8.59;100.00;102102.84;5011997;28;20120;-72
2023/12/17 01:37:10;;;;;;;17.58;8.90;;;;;;;8.61;100.00;102105.22;5010955;28;20030;-74
2023/12/17 01:40:00;;;;;;;14.02;7.53;;;;;;;8.57;100.00;102087.41;5011864;28;20345;-74
2023/12/17 01:42:26;;;;;;;10.35;5.10;;;;;;;8.49;100.00;102083.09;5012106;28;20038;-72
2023/12/17 01:44:51;;;;;;;7.82;4.60;;;;;;;8.46;100.00;102078.25;5011892;28;20033;-75
2023/12/17 01:47:17;;;;;;;10.60;4.75;;;;;;;8.45;100.00;102080.31;5013075;28;20497;-73
2023/12/17 01:49:44;;;;;;;8.32;5.00;;;;;;;8.42;100.00;102103.94;5011638;28;20080;-75
2023/12/17 01:52:18;;;;;;;11.93;5.30;;;;;;;8.39;100.00;102099.13;5012977;28;20549;-73
2023/12/17 01:54:52;;;;;;;9.00;4.85;;;;;;;8.46;100.00;102107.53;5012919;28;20553;-73
2023/12/17 01:57:19;;;;;;;10.15;4.60;;;;;;;8.52;100.00;102097.25;5013115;28;20037;-72
2023/12/17 01:59:49;;;;;;;8.55;4.50;;;;;;;8.44;100.00;102101.47;5012559;28;20105;-73
2023/12/17 02:02:36;;;;;;;9.60;5.30;;;;;;;8.45;100.00;102073.81;5010369;28;20032;-75
2023/12/17 02:05:12;;;;;;;11.70;5.18;;;;;;;8.35;100.00;102076.41;5011562;28;20072;-73
2023/12/17 02:07:59;;;;;;;6.60;4.32;;;;;;;8.26;100.00;102069.66;5010138;28;20022;-73
2023/12/17 02:10:37;;;;;;;10.05;4.18;;;;;;;8.20;100.00;102080.75;5010220;28;20436;-75
2023/12/17 02:13:04;;;;;;;11.30;4.80;;;;;;;8.20;100.00;102086.44;5012038;28;20028;-74
2023/12/17 02:15:30;;;;;;;7.25;4.70;;;;;;;8.12;100.00;102090.59;5015049;28;20561;-74
2023/12/17 02:17:56;;;;;;;7.82;5.10;;;;;;;8.11;100.00;102103.25;5014528;28;20025;-73
2023/12/17 02:20:24;;;;;;;12.07;5.85;;;;;;;8.05;100.00;102102.13;5031362;28;20017;-72
2023/12/17 02:22:53;;;;;;;5.78;5.07;;;;;;;8.00;100.00;102094.06;5015128;28;20467;-74
2023/12/17 02:25:19;;;;;;;10.85;5.13;;;;;;;7.95;100.00;102098.22;5013816;28;20342;-74
2023/12/17 02:27:49;;;;;;;9.48;5.50;;;;;;;7.90;100.00;102112.13;5014880;28;20522;-74
2023/12/17 02:30:16;;;;;;;8.30;5.05;;;;;;;7.90;100.00;102100.72;5014633;28;20045;-73
2023/12/17 02:33:02;;;;;;;13.00;5.35;;;;;;;7.90;100.00;102109.28;5014888;28;20121;-73
2023/12/17 02:35:28;;;;;;;13.00;6.60;;;;;;;7.93;100.00;102108.41;5014863;28;20541;-73
2023/12/17 02:37:54;;;;;;;10.13;6.35;;;;;;;7.87;100.00;102110.91;5015589;28;20113;-72
2023/12/17 02:40:20;;;;;;;14.15;6.10;;;;;;;7.85;100.00;102106.91;5015956;28;20383;-73
2023/12/17 02:43:00;;;;;;;12.98;5.80;;;;;;;7.74;100.00;102098.53;5015742;28;20045;-73
2023/12/17 02:45:27;;;;;;;14.43;6.43;;;;;;;7.72;100.00;102098.13;5015733;28;20025;-73
2023/12/17 02:47:53;;;;;;;10.15;5.28;;;;;;;7.68;100.00;102097.41;5014332;28;20030;-73
2023/12/17 02:50:21;;;;;;;9.75;5.85;;;;;;;7.63;100.00;102112.09;5016059;28;20489;-73
2023/12/17 02:52:48;;;;;;;8.93;6.15;;;;;;;7.61;100.00;102110.94;5015593;28;20122;-73
2023/12/17 02:55:14;;;;;;;11.77;6.22;;;;;;;7.55;100.00;102124.81;5015494;28;20101;-73
2023/12/17 02:57:40;;;;;;;9.68;5.60;;;;;;;7.47;100.00;102104.19;5015645;28;20427;-72
2023/12/17 03:00:06;;;;;;;10.98;6.25;;;;;;;7.45;100.00;102095.28;5014369;28;20084;-72
2023/12/17 03:02:33;;;;;;;10.27;6.15;;;;;;;7.45;100.00;102092.44;5015297;28;20037;-73
2023/12/17 03:04:59;;;;;;;11.40;6.50;;;;;;;7.39;100.00;102097.00;5014439;28;20046;-73
2023/12/17 03:07:30;;;;;;;8.65;6.20;;;;;;;7.29;100.00;102089.41;5014625;28;20116;-73
2023/12/17 03:09:57;;;;;;;12.90;6.25;;;;;;;7.23;100.00;102101.69;5014213;28;20066;-74
2023/12/17 03:12:31;;;;;;;15.05;7.70;;;;;;;7.16;100.00;102118.84;5014438;28;20458;-75
2023/12/17 03:14:56;;;;;;;12.45;6.55;;;;;;;7.08;100.00;102096.19;5014730;28;20033;-74
2023/12/17 03:17:22;;;;;;;12.75;7.03;;;;;;;7.08;100.00;102101.06;5015274;28;20029;-73
2023/12/17 03:19:49;;;;;;;13.05;7.35;;;;;;;6.99;100.00;102081.69;5014842;28;20073;-72
2023/12/17 03:22:15;;;;;;;13.15;6.57;;;;;;;6.96;100.00;102087.41;5015207;28;20381;-73
2023/12/17 03:24:42;;;;;;;11.60;7.07;;;;;;;6.92;100.00;102083.81;5014131;28;20328;-74
2023/12/17 03:27:08;;;;;;;12.00;7.10;;;;;;;6.86;100.00;102080.63;5015028;28;20033;-73
2023/12/17 03:29:33;;;;;;;9.98;5.93;;;;;;;6.77;100.00;102065.31;5014723;28;20033;-73
2023/12/17 03:32:02;;;;;;;14.98;7.43;;;;;;;6.75;100.00;102067.75;5014760;28;20045;-73
2023/12/17 03:34:27;;;;;;;13.10;6.68;;;;;;;6.68;100.00;102079.22;5014911;28;20441;-72
2023/12/17 03:36:54;;;;;;;11.85;7.75;;;;;;;6.61;100.00;102075.22;5014860;28;20029;-74
2023/12/17 03:39:19;;;;;;;13.82;7.20;;;;;;;6.61;100.00;102083.75;5014699;28;20033;-72
2023/12/17 03:41:45;;;;;;;13.48;7.70;;;;;;;6.54;100.00;102069.59;5015016;28;20042;-73
2023/12/17 03:44:11;;;;;;;14.13;7.90;;;;;;;6.51;100.00;102093.19;5013544;28;20033;-72
2023/12/17 03:46:36;;;;;;;13.15;7.50;;;;;;;6.50;100.00;102088.72;5014915;28;20059;-73
2023/12/17 03:49:02;;;;;;;22.65;8.73;;;;;;;6.50;100.00;102093.59;5014954;28;20042;-72
2023/12/17 03:51:30;;;;;;;18.13;8.70;;;;;;;6.46;100.00;102090.78;5013402;28;20456;-72
2023/12/17 03:53:56;;;;;;;12.68;7.43;;;;;;;6.41;100.00;102088.41;5015041;28;20069;-73
2023/12/17 03:56:23;;;;;;;12.43;7.45;;;;;;;6.39;100.00;102082.34;5014564;28;20479;-72
2023/12/17 03:59:10;;;;;;;11.90;7.97;;;;;;;6.33;100.00;102094.59;5029266;28;20033;-73
2023/12/17 04:01:44;;;;;;;16.27;9.40;;;;;;;6.29;100.00;102088.09;5011985;28;20068;-72
2023/12/17 04:04:13;;;;;;;16.80;8.98;;;;;;;6.25;100.00;102093.78;5011862;28;20113;-74
2023/12/17 04:06:49;;;;;;;11.77;7.50;;;;;;;6.20;100.00;102099.91;5012283;28;20037;-73
2023/12/17 04:09:37;;;;;;;14.07;8.75;;;;;;;6.15;100.00;102104.00;5012900;28;20034;-75
2023/12/17 04:12:11;;;;;;;17.33;8.13;;;;;;;6.10;100.00;102106.50;5012880;28;20038;-73
2023/12/17 04:14:36;;;;;;;16.50;7.70;;;;;;;6.06;100.00;102102.88;5012918;28;20026;-75
2023/12/17 04:17:02;;;;;;;12.00;7.82;;;;;;;6.01;100.00;102111.84;5012540;28;20563;-74
2023/12/17 04:19:27;;;;;;;12.93;8.52;;;;;;;6.00;100.00;102119.53;5013745;28;20054;-73
2023/12/17 04:21:57;;;;;;;17.67;8.43;;;;;;;5.87;100.00;102109.13;5013277;28;20435;-74
2023/12/17 04:24:23;;;;;;;14.80;8.00;;;;;;;5.93;100.00;102124.47;5011634;28;20034;-72
2023/12/17 04:26:48;;;;;;;12.93;7.78;;;;;;;5.92;100.00;102117.19;5011481;28;20076;-74
2023/12/17 04:29:16;;;;;;;13.32;8.10;;;;;;;5.87;100.00;102126.13;5012930;28;20101;-72
2023/12/17 04:31:43;;;;;;;15.48;8.27;;;;;;;5.87;100.00;102123.28;5011872;28;20478;-74
2023/12/17 04:34:10;;;;;;;13.55;8.05;;;;;;;5.78;100.00;102120.94;5013162;28;20493;-73
2023/12/17 04:36:41;;;;;;;14.07;8.73;;;;;;;5.77;100.00;102105.94;5013165;28;20027;-74
2023/12/17 04:39:07;;;;;;;15.75;8.75;;;;;;;5.73;100.00;102095.84;5012662;28;20077;-74
2023/12/17 04:41:33;;;;;;;16.15;8.73;;;;;;;5.73;100.00;102102.31;4979993;28;20045;-74
2023/12/17 04:43:59;;;;;;;15.23;9.15;;;;;;;5.71;100.00;102087.75;5013553;28;20433;-75
2023/12/17 04:46:28;;;;;;;15.57;8.02;;;;;;;5.61;100.00;102082.13;5013636;28;20113;-73
2023/12/17 04:48:55;;;;;;;13.57;8.45;;;;;;;5.60;100.00;102087.00;4996486;28;20033;-72
2023/12/17 04:51:22;;;;;;;13.70;7.75;;;;;;;5.61;100.00;102099.16;5012374;28;20048;-73
2023/12/17 04:53:49;;;;;;;13.77;8.15;;;;;;;5.59;100.00;102093.09;5012548;28;20025;-73
2023/12/17 04:56:17;;;;;;;18.80;8.88;;;;;;;5.61;100.00;102094.28;5012014;28;20041;-74
2023/12/17 04:58:51;;;;;;;16.25;8.90;;;;;;;5.56;100.00;102093.91;4995713;28;20107;-72
2023/12/17 05:01:18;;;;;;;21.48;9.68;;;;;;;5.53;100.00;102098.41;5013570;28;20092;-72
2023/12/17 05:03:43;;;;;;;15.85;8.40;;;;;;;5.57;100.00;102089.88;5013179;28;20510;-74
2023/12/17 05:06:11;;;;;;;21.33;10.48;;;;;;;5.58;100.00;102102.81;5012005;28;20042;-73
2023/12/17 05:08:37;;;;;;;17.00;8.18;;;;;;;5.60;100.00;102089.03;5013153;28;20029;-74
2023/12/17 05:11:03;;;;;;;17.17;8.43;;;;;;;5.64;100.00;102095.50;5013288;28;20395;-73
2023/12/17 05:13:30;;;;;;;15.75;7.18;;;;;;;5.65;100.00;102103.56;5013418;28;20029;-72
2023/12/17 05:16:04;;;;;;;12.93;8.45;;;;;;;5.68;100.00;102107.63;5013271;28;20030;-74
2023/12/17 05:18:31;;;;;;;13.82;8.77;;;;;;;5.75;100.00;102111.22;5012999;28;20505;-73
2023/12/17 05:21:06;;;;;;;13.30;7.93;;;;;;;5.80;100.00;102107.94;5013213;28;20022;-74
2023/12/17 05:23:32;;;;;;;17.85;8.43;;;;;;;5.90;100.00;102113.94;5013557;28;20038;-74
2023/12/17 05:25:59;;;;;;;14.40;8.45;;;;;;;5.98;100.00;102119.16;5028304;28;20040;-75
2023/12/17 05:28:27;;;;;;;15.68;8.35;;;;;;;6.04;100.00;102120.31;5011914;28;20038;-73
2023/12/17 05:30:53;;;;;;;18.30;8.15;;;;;;;6.10;100.00;102120.69;5013506;28;20411;-73
2023/12/17 05:33:19;;;;;;;16.42;7.57;;;;;;;6.15;100.00;102125.91;5011861;28;20030;-73
2023/12/17 05:35:45;;;;;;;16.42;7.75;;;;;;;6.19;100.00;102121.81;5012923;28;20045;-74
2023/12/17 05:38:12;;;;;;;11.02;6.80;;;;;;;6.27;100.00;102139.63;5013145;28;20030;-74
2023/12/17 05:40:39;;;;;;;12.60;7.50;;;;;;;6.32;100.00;102130.69;5013154;28;20026;-74
2023/12/17 05:43:05;;;;;;;16.08;7.65;;;;;;;6.45;100.00;102142.31;5011910;28;20112;-74
2023/12/17 05:45:32;;;;;;;15.27;7.88;;;;;;;6.56;100.00;102138.16;5013064;28;20076;-74
2023/12/17 05:47:58;;;;;;;15.45;8.00;;;;;;;6.67;100.00;102135.22;5013538;28;20104;-73
2023/12/17 05:50:25;;;;;;;13.45;7.82;;;;;;;6.72;100.00;102140.44;5015652;28;20475;-73
2023/12/17 05:52:52;;;;;;;12.40;8.32;;;;;;;6.71;100.00;102133.16;5017094;28;20029;-73
2023/12/17 05:55:20;;;;;;;23.95;9.07;;;;;;;6.78;100.00;102126.59;5016382;28;20038;-74
2023/12/17 05:57:50;;;;;;;20.48;9.05;;;;;;;6.82;100.00;102124.50;5016698;28;20022;-73
2023/12/17 06:00:17;;;;;;;13.90;7.63;;;;;;;6.87;100.00;102124.06;5015823;28;20026;-74
2023/12/17 06:02:44;;;;;;;13.23;7.63;;;;;;;6.85;100.00;102115.13;5015289;28;20033;-73
2023/12/17 06:05:11;;;;;;;12.63;6.95;;;;;;;6.85;100.00;102117.97;5017054;28;20129;-73
2023/12/17 06:07:38;;;;;;;16.55;8.68;;;;;;;6.82;100.00;102122.47;5016646;28;20026;-72
2023/12/17 06:10:05;;;;;;;12.18;8.18;;;;;;;6.83;100.00;102114.78;5014721;28;20034;-74
2023/12/17 06:12:31;;;;;;;15.38;7.57;;;;;;;6.78;100.00;102101.81;5016254;28;20495;-73
2023/12/17 06:14:58;;;;;;;13.73;7.63;;;;;;;6.80;100.00;102101.41;5016320;28;20057;-73
2023/12/17 06:17:24;;;;;;;13.02;7.88;;;;;;;6.79;100.00;102108.28;5016086;28;20061;-73
2023/12/17 06:19:54;;;;;;;12.82;8.05;;;;;;;6.75;100.00;102111.19;5016255;28;20041;-72
2023/12/17 06:22:23;;;;;;;15.60;7.93;;;;;;;6.74;100.00;102118.09;5016251;28;20029;-74
2023/12/17 06:24:49;;;;;;;14.70;7.28;;;;;;;6.72;100.00;102114.06;5016154;28;20022;-73
2023/12/17 06:27:23;;;;;;;12.48;8.10;;;;;;;6.66;100.00;102133.59;5016321;28;20030;-73
2023/12/17 06:29:52;;;;;;;16.02;7.90;;;;;;;6.71;100.00;102127.47;5016007;28;20205;-72
2023/12/17 06:32:19;;;;;;;15.40;7.70;;;;;;;6.75;100.00;102133.09;5016299;28;20028;-73
2023/12/17 06:34:44;;;;;;;13.70;7.18;;;;;;;6.81;100.00;102128.59;5016191;28;20099;-73
2023/12/17 06:37:10;;;;;;;12.90;7.50;;;;;;;6.89;100.00;102139.44;5015877;28;20414;-74
2023/12/17 06:39:42;;;;;;;11.13;7.35;;;;;;;6.98;100.00;102122.69;5014846;28;20030;-73
2023/12/17 06:42:14;;;;;;;10.32;7.05;;;;;;;6.98;100.00;102133.25;5015815;28;20030;-74
2023/12/17 06:44:40;;;;;;;;;;;;;;;7.01;100.00;102135.25;5016121;28;20053;-74
2023/12/17 06:47:09;;;;;;;13.45;7.00;;;;;;;7.08;100.00;102138.00;5014517;28;19961;-74
2023/12/17 06:49:38;;;;;;;11.00;6.90;;;;;;;7.19;100.00;102147.22;5030885;28;20026;-73
2023/12/17 06:52:04;;;;;;;15.80;7.68;;;;;;;7.23;100.00;102147.97;5015650;28;20025;-74
2023/12/17 06:54:31;;;;;;;15.85;6.93;;;;;;;7.30;100.00;102158.47;5014850;28;20033;-73
2023/12/17 06:56:58;;;;;;;8.90;6.30;;;;;;;7.36;100.00;102154.75;5015157;28;20026;-73
2023/12/17 06:59:33;;;;;;;10.93;6.32;;;;;;;7.44;100.00;102159.09;5014916;28;20018;-75
2023/12/17 07:02:01;;;;;;;12.70;6.80;;;;;;;7.51;100.00;102164.69;5015298;28;20025;-72
2023/12/17 07:04:26;;;;;;;9.88;6.00;;;;;;;7.57;100.00;102162.16;5015596;28;20428;-75
2023/12/17 07:06:52;;;;;;;10.98;5.65;;;;;;;7.65;100.00;102160.84;5015219;28;20038;-74
2023/12/17 07:09:20;;;;;;;8.98;5.43;;;;;;;7.64;100.00;102167.78;5015159;28;20049;-74
2023/12/17 07:11:46;;;;;;;19.27;7.03;;;;;;;7.68;100.00;102176.25;5013949;28;20494;-74
2023/12/17 07:14:14;;;;;;;11.25;5.60;;;;;;;7.76;100.00;102172.91;5015186;28;20388;-73
2023/12/17 07:16:39;;;;;;;8.07;5.50;;;;;;;7.79;100.00;102177.72;5015383;28;20030;-73
2023/12/17 07:19:05;;;;;;;12.80;6.40;;;;;;;7.85;100.00;102175.22;5013129;28;20056;-73
2023/12/17 07:21:31;;;;;;;9.30;5.72;;;;;;;7.88;100.00;102172.31;5014814;28;20033;-73
2023/12/17 07:24:03;;;;;;;10.52;5.68;;;;;;;7.93;100.00;102176.72;5013838;28;20042;-75
2023/12/17 07:26:30;;;;;;;8.73;5.20;;;;;;;7.91;100.00;102191.41;5015245;28;20060;-74
2023/12/17 07:28:56;;;;;;;12.20;6.65;;;;;;;8.02;100.00;102179.03;5015120;28;20050;-75
2023/12/17 07:31:23;;;;;;;12.02;6.05;;;;;;;8.04;100.00;102177.38;5014934;28;20041;-76
2023/12/17 07:33:50;;;;;;;12.60;6.20;;;;;;;8.06;100.00;102174.91;5015280;28;20091;-75
2023/12/17 07:36:16;;;;;;;9.55;5.68;;;;;;;8.02;100.00;102176.97;5014496;28;20033;-79
2023/12/17 07:38:43;;;;;;;6.07;5.47;;;;;;;7.95;100.00;102180.75;5016420;28;20026;-80
2023/12/17 07:41:09;;;;;;;8.10;5.85;;;;;;;8.03;100.00;102177.78;5013663;28;20022;-76
2023/12/17 07:43:36;;;;;;;8.43;5.97;;;;;;;8.06;100.00;102192.00;5013520;28;20127;-76
2023/12/17 07:46:02;;;;;;;11.52;5.22;;;;;;;8.04;100.00;102190.78;5013133;28;20044;-76
2023/12/17 07:48:28;;;;;;;12.52;6.15;;;;;;;8.11;100.00;102185.00;5013449;28;20018;-76
2023/12/17 07:50:55;;;;;;;11.50;5.95;;;;;;;8.14;100.00;102186.97;5013512;28;20120;-74
2023/12/17 07:53:22;;;;;;;13.77;6.53;;;;;;;8.20;100.00;102188.97;5012301;28;20106;-78
2023/12/17 07:55:52;;;;;;;11.93;5.55;;;;;;;8.12;100.00;102189.44;5015041;28;20030;-75
2023/12/17 07:58:19;;;;;;;10.65;5.70;;;;;;;8.25;100.00;102193.34;5014324;28;20030;-76
2023/12/17 08:00:45;;;;;;;16.58;6.28;;;;;;;8.34;100.00;102196.47;5014314;28;20025;-76
2023/12/17 08:03:11;;;;;;;10.10;5.50;;;;;;;8.38;100.00;102200.06;5014265;28;20026;-79
2023/12/17 08:05:38;;;;;;;12.35;6.13;;;;;;;8.44;100.00;102204.03;5012666;28;20034;-79
2023/12/17 08:08:11;;;;;;;13.40;6.25;;;;;;;8.54;100.00;102196.53;5014380;28;20498;-77
2023/12/17 08:10:38;;;;;;;9.50;5.38;;;;;;;8.54;100.00;102210.78;5013833;28;20022;-78
2023/12/17 08:13:04;;;;;;;8.93;4.85;;;;;;;8.56;100.00;102211.19;5013937;28;20030;-78
2023/12/17 08:15:31;;;;;;;6.97;4.85;;;;;;;8.58;100.00;102211.53;5003836;28;20033;-78
2023/12/17 08:18:02;;;;;;;8.55;5.13;;;;;;;8.53;100.00;102206.31;4988295;28;20038;-78
2023/12/17 08:20:30;;;;;;;12.70;5.28;;;;;;;8.48;100.00;102201.94;4991604;28;20061;-79
2023/12/17 08:22:56;;;;;;;7.35;4.30;;;;;;;8.38;100.00;102206.56;4992534;28;20092;-79
2023/12/17 08:25:22;;;;;;;9.48;4.72;;;;;;;8.45;100.00;102197.09;5005138;28;20106;-78
2023/12/17 08:27:48;;;;;;;11.05;4.47;;;;;;;8.46;100.00;102193.00;4984265;28;20059;-80
2023/12/17 08:30:18;;;;;;;14.02;6.05;;;;;;;8.39;100.00;102191.09;4984922;28;20048;-79
2023/12/17 08:32:47;;;;;;;8.13;4.88;;;;;;;8.42;100.00;102200.81;5008725;28;20030;-81
2023/12/17 08:35:15;;;;;;;12.57;5.18;;;;;;;8.32;100.00;102208.28;4993993;28;20106;-79
2023/12/17 08:37:42;;;;;;;15.52;7.13;;;;;;;8.37;100.00;102193.56;4993487;28;20117;-77
2023/12/17 08:40:09;;;;;;;8.57;4.13;;;;;;;8.35;100.00;102206.63;4976154;28;20022;-78
2023/12/17 08:42:35;;;;;;;7.95;4.82;;;;;;;8.37;100.00;102201.28;4971765;28;20037;-77
2023/12/17 08:45:00;;;;;;;8.38;4.60;;;;;;;8.35;100.00;102201.75;4990489;28;20112;-75
2023/12/17 08:47:27;;;;;;;9.20;4.60;;;;;;;8.44;100.00;102189.78;4995824;28;20507;-82
2023/12/17 08:49:54;;;;;;;7.07;4.43;;;;;;;8.47;100.00;102188.09;5024128;28;20018;-80
2023/12/17 08:52:19;;;;;;;9.23;4.95;;;;;;;8.47;100.00;102208.84;4993013;28;20026;-80
2023/12/17 08:54:56;;;;;;;8.77;4.50;;;;;;;8.35;100.00;102201.75;4992874;28;20170;-77
2023/12/17 08:57:22;;;;;;;7.38;3.80;;;;;;;8.39;100.00;102215.91;4993050;28;20113;-79
2023/12/17 08:59:49;;;;;;;10.82;4.32;;;;;;;8.29;100.00;102199.78;4993443;28;20105;-80
2023/12/17 09:02:16;;;;;;;6.57;4.40;;;;;;;8.34;100.00;102207.84;4993896;28;20388;-79
2023/12/17 09:04:43;;;;;;;6.50;4.07;;;;;;;8.25;100.00;102211.25;4993844;28;20041;-78
2023/12/17 09:07:10;;;;;;;6.82;4.47;;;;;;;8.14;100.00;102221.16;4994024;28;20121;-78
2023/12/17 09:09:35;;;;;;;9.63;4.53;;;;;;;8.30;100.00;102216.47;4993844;28;20031;-78
2023/12/17 09:12:01;;;;;;;7.55;5.07;;;;;;;8.34;100.00;102210.72;5008609;28;20084;-78
2023/12/17 09:14:27;;;;;;;8.13;4.45;;;;;;;8.38;100.00;102217.97;4993708;28;20030;-79
2023/12/17 09:16:54;;;;;;;8.48;4.95;;;;;;;8.45;100.00;102214.19;4993995;28;20046;-82
2023/12/17 09:19:20;;;;;;;6.95;4.80;;;;;;;8.41;100.00;102184.16;4994802;28;20061;-82
2023/12/17 09:21:47;;;;;;;6.40;4.43;;;;;;;8.45;100.00;102196.28;4992519;28;20018;-80
2023/12/17 09:24:13;;;;;;;9.43;4.38;;;;;;;8.53;100.00;102195.75;4996465;28;20065;-79
2023/12/17 09:26:40;;;;;;;7.85;4.55;;;;;;;8.59;100.00;102201.75;4997746;28;20038;-82
2023/12/17 09:29:07;;;;;;;9.30;4.78;;;;;;;8.31;100.00;102183.09;4997584;28;20484;-81
2023/12/17 09:31:34;;;;;;;8.48;4.82;;;;;;;8.35;100.00;102184.66;4998045;28;20022;-81
2023/12/17 09:34:03;;;;;;;12.27;5.05;;;;;;;8.45;100.00;102196.28;4997925;28;20045;-80
2023/12/17 09:36:29;;;;;;;4.72;3.97;;;;;;;8.45;100.00;102180.00;4997645;28;20472;-80
2023/12/17 09:38:56;;;;;;;6.70;4.05;;;;;;;8.53;100.00;102192.88;4996949;28;20050;-80
2023/12/17 09:41:27;;;;;;;9.15;4.68;;;;;;;8.63;100.00;102196.78;4996927;28;20026;-79
2023/12/17 09:43:53;;;;;;;6.78;5.00;;;;;;;8.55;100.00;102190.44;4995332;28;20420;-77
2023/12/17 09:46:20;;;;;;;9.57;4.78;;;;;;;8.59;100.00;102193.22;5011920;28;20109;-79
2023/12/17 09:48:47;;;;;;;8.05;4.40;;;;;;;8.65;100.00;102200.03;4996955;28;20117;-78
2023/12/17 09:51:14;;;;;;;8.45;4.85;;;;;;;8.66;100.00;102201.63;4997035;28;20034;-77
2023/12/17 09:53:41;;;;;;;8.90;4.80;;;;;;;8.65;100.00;102192.28;4995356;28;20364;-79
2023/12/17 09:56:07;;;;;;;7.05;4.90;;;;;;;8.63;100.00;102194.75;4996817;28;20070;-79
2023/12/17 09:58:41;;;;;;;7.47;4.85;;;;;;;8.71;100.00;102199.06;4996833;28;20098;-78
2023/12/17 10:01:08;;;;;;;10.07;4.32;;;;;;;8.65;100.00;102194.34;4995332;28;20105;-79
2023/12/17 10:03:35;;;;;;;9.18;5.43;;;;;;;8.66;100.00;102193.88;5027742;28;20034;-79
2023/12/17 10:06:03;;;;;;;8.48;5.35;;;;;;;8.61;100.00;102187.84;4995035;28;20061;-79
2023/12/17 10:08:30;;;;;;;6.82;4.55;;;;;;;8.79;100.00;102199.78;4996047;28;20026;-78
2023/12/17 10:10:56;;;;;;;9.45;4.97;;;;;;;9.02;100.00;102182.66;5027643;28;20126;-79
2023/12/17 10:13:23;;;;;;;8.60;4.75;;;;;;;9.25;100.00;102182.59;4996151;28;20379;-79
2023/12/17 10:15:49;;;;;;;6.45;4.57;;;;;;;9.38;100.00;102174.19;5027980;28;20034;-77
2023/12/17 10:18:24;;;;;;;9.50;5.20;;;;;;;9.53;100.00;102169.81;4995017;28;20114;-76
2023/12/17 10:20:50;;;;;;;9.25;5.07;;;;;;;9.63;100.00;102167.97;4996413;28;20122;-76
2023/12/17 10:23:16;;;;;;;7.35;5.43;;;;;;;9.68;100.00;102170.31;4996199;28;20045;-79
2023/12/17 10:25:43;;;;;;;9.45;4.95;;;;;;;9.57;100.00;102156.25;5027395;28;20030;-81
2023/12/17 10:28:15;;;;;;;11.43;5.18;;;;;;;9.49;100.00;102160.53;4995009;28;20038;-79
2023/12/17 10:30:43;;;;;;;9.82;4.68;;;;;;;9.44;100.00;102161.03;4996338;28;20030;-80
2023/12/17 10:33:14;;;;;;;10.70;5.57;;;;;;;9.37;100.00;102154.66;4994821;28;20487;-77
2023/12/17 10:35:40;;;;;;;7.72;5.15;;;;;;;9.33;100.00;102139.66;4995407;28;20040;-78
2023/12/17 10:38:07;;;;;;;8.63;4.68;;;;;;;9.30;100.00;102152.75;5011175;28;20460;-76
2023/12/17 10:40:36;;;;;;;5.72;3.65;;;;;;;9.17;100.00;102149.75;5010579;28;20033;-76
2023/12/17 10:43:04;;;;;;;5.57;4.15;;;;;;;9.12;100.00;102153.13;4995933;28;20030;-77
2023/12/17 10:45:31;;;;;;;6.50;3.95;;;;;;;9.08;100.00;102146.69;4996091;28;20026;-76
2023/12/17 10:47:57;;;;;;;7.68;3.97;;;;;;;9.04;100.00;102142.28;5027321;28;20026;-76
2023/12/17 10:50:32;;;;;;;6.50;4.47;;;;;;;9.02;100.00;102130.50;5010460;28;20042;-76
2023/12/17 10:52:57;;;;;;;9.95;4.47;;;;;;;8.97;100.00;102123.28;4994494;28;20420;-77
2023/12/17 10:55:23;;;;;;;6.53;4.15;;;;;;;8.95;100.00;102125.78;5010596;28;20034;-75
2023/12/17 10:57:59;;;;;;;6.85;3.70;;;;;;;8.90;100.00;102120.56;4995466;28;20069;-75
2023/12/17 11:00:27;;;;;;;8.20;4.07;;;;;;;8.76;100.00;102106.56;5026951;28;20022;-75
2023/12/17 11:02:57;;;;;;;13.20;4.35;;;;;;;8.77;100.00;102105.34;4998742;28;20056;-77
2023/12/17 11:05:24;;;;;;;6.40;4.03;;;;;;;8.83;100.00;102120.69;5013721;28;20119;-75
2023/12/17 11:07:52;;;;;;;7.03;4.35;;;;;;;8.84;100.00;102130.88;5013403;28;20048;-75
2023/12/17 11:10:19;;;;;;;9.43;4.63;;;;;;;8.87;100.00;102127.13;5014755;28;20423;-77
2023/12/17 11:12:48;;;;;;;7.50;4.13;;;;;;;8.97;100.00;102133.88;5013608;28;20133;-77
2023/12/17 11:15:14;;;;;;;6.13;4.15;;;;;;;8.95;100.00;102128.63;5013630;28;20107;-78
2023/12/17 11:17:40;;;;;;;7.82;4.55;;;;;;;8.95;100.00;102134.31;5012207;28;20058;-75
2023/12/17 11:20:06;;;;;;;10.18;4.70;;;;;;;8.94;100.00;102131.91;4996876;28;20057;-74
2023/12/17 11:22:37;;;;;;;6.13;3.85;;;;;;;8.92;100.00;102131.53;5014893;28;20034;-78